Time;durP1;ratioP1;P1;durP2;ratioP2;P2;SDS_P1;SDS_P2;PMS_P1;PMS_P2;Temp;Humidity;BMP_temperature;BMP_pressure;BME280_temperature;BME280_humidity;BME280_pressure;Samples;Min_cycle;Max_cycle;Signal;HPM_P1;HPM_P2
2024/04/12 00:00:57;;;;;;;;;;;;;;;20.48;48.24;102688.03;2218176;26;5943;-71
2024/04/12 00:01:59;;;;;;;;;;;;;;;20.48;48.75;102682.28;2222983;26;2202;-72
2024/04/12 00:03:01;;;;;;;;;;;;;;;20.47;48.54;102687.25;2222626;26;2119;-71
2024/04/12 00:04:03;;;;;;;;;;;;;;;20.49;48.32;102689.53;2221563;26;2262;-71
2024/04/12 00:05:05;;;;;;;;;;;;;;;20.48;48.52;102693.78;2221150;26;2518;-71
2024/04/12 00:06:14;;;;;;;;;;;;;;;20.48;48.34;102688.03;2224154;26;2528;-72
2024/04/12 00:07:17;;;;;;;;;;;;;;;20.48;48.29;102682.28;2221842;26;2130;-71
2024/04/12 00:08:29;;;;;;;;;;;;;;;20.47;48.25;102672.09;2215597;26;2558;-72
2024/04/12 00:09:30;;;;;;;;;;;;;;;20.47;48.61;102687.25;2225101;26;2526;-72
2024/04/12 00:10:32;;;;;;;;;;;;;;;20.46;48.40;102685.75;2219200;26;2357;-71
2024/04/12 00:11:33;;;;;;;;;;;;;;;20.48;48.76;102680.16;2221367;26;2586;-71
2024/04/12 00:12:35;;;;;;;;;;;;;;;20.46;48.42;102680.00;2221784;26;2486;-71
2024/04/12 00:13:40;;;;;;;;;;;;;;;20.47;48.21;102678.63;2223446;26;2301;-71
2024/04/12 00:14:43;;;;;;;;;;;;;;;20.46;48.66;102688.63;2219128;26;2718;-71
2024/04/12 00:15:47;;;;;;;;;;;;;;;20.46;48.31;102677.09;2218376;26;2976;-71
2024/04/12 00:16:52;;;;;;;;;;;;;;;20.47;48.18;102680.75;2222592;26;2011;-71
2024/04/12 00:17:55;;;;;;;;;;;;;;;20.46;48.92;102680.00;2220245;26;2321;-71
2024/04/12 00:19:07;;;;;;;;;;;;;;;20.46;48.66;102673.47;2216038;26;2360;-71
2024/04/12 00:20:10;;;;;;;;;;;;;;;20.46;48.34;102670.59;2219201;26;2257;-71
2024/04/12 00:21:12;;;;;;;;;;;;;;;20.46;48.94;102674.25;2230918;26;2553;-71
2024/04/12 00:22:14;;;;;;;;;;;;;;;20.45;48.10;102678.47;2233048;26;2288;-71
2024/04/12 00:23:16;;;;;;;;;;;;;;;20.45;48.65;102678.47;2226506;26;2133;-71
2024/04/12 00:24:18;;;;;;;;;;;;;;;20.45;48.68;102672.69;2223220;26;2013;-73
2024/04/12 00:25:20;;;;;;;;;;;;;;;20.46;48.99;102668.47;2222440;26;2005;-72
2024/04/12 00:26:27;;;;;;;;;;;;;;;20.45;48.60;102666.94;2221739;26;2115;-72
2024/04/12 00:27:33;;;;;;;;;;;;;;;20.45;48.70;102669.06;2220217;26;2350;-71
2024/04/12 00:28:36;;;;;;;;;;;;;;;20.46;48.64;102679.25;2214067;26;2474;-71
2024/04/12 00:29:39;;;;;;;;;;;;;;;20.45;48.54;102675.59;2219238;26;2728;-71
2024/04/12 00:30:43;;;;;;;;;;;;;;;20.45;48.44;102671.94;2218515;26;6093;-70
2024/04/12 00:31:46;;;;;;;;;;;;;;;20.44;48.58;102676.97;2219989;26;2301;-71
2024/04/12 00:32:56;;;;;;;;;;;;;;;20.45;48.79;102669.81;2221754;26;2199;-71
2024/04/12 00:34:04;;;;;;;;;;;;;;;20.44;48.69;102668.31;2217401;26;2500;-72
2024/04/12 00:35:11;;;;;;;;;;;;;;;20.45;48.39;102666.94;2220377;26;2684;-72
2024/04/12 00:36:13;;;;;;;;;;;;;;;20.45;48.57;102666.19;2218780;26;2084;-71
2024/04/12 00:37:15;;;;;;;;;;;;;;;20.44;48.67;102664.69;2222451;26;2176;-71
2024/04/12 00:38:18;;;;;;;;;;;;;;;20.44;48.96;102682.72;2220199;26;2423;-71
2024/04/12 00:39:35;;;;;;;;;;;;;;;20.44;48.31;102682.72;2220817;26;2538;-71
2024/04/12 00:40:40;;;;;;;;;;;;;;;20.45;48.56;102678.47;2214163;26;2247;-71
2024/04/12 00:41:42;;;;;;;;;;;;;;;20.44;48.60;102676.97;2218002;26;2184;-72
2024/04/12 00:42:44;;;;;;;;;;;;;;;20.45;48.37;102671.94;2225288;26;2127;-71
2024/04/12 00:43:47;;;;;;;;;;;;;;;20.44;48.50;102668.31;2226166;26;2086;-72
2024/04/12 00:44:49;;;;;;;;;;;;;;;20.44;48.37;102674.06;2224052;26;2441;-71
2024/04/12 00:45:52;;;;;;;;;;;;;;;20.43;48.61;102666.81;2219585;26;2437;-71
2024/04/12 00:46:53;;;;;;;;;;;;;;;20.44;48.46;102665.44;2220491;26;2218;-71
2024/04/12 00:47:55;;;;;;;;;;;;;;;20.44;48.97;102671.19;2220039;26;2534;-71
2024/04/12 00:49:00;;;;;;;;;;;;;;;20.43;48.52;102669.69;2218572;26;2499;-72
2024/04/12 00:50:03;;;;;;;;;;;;;;;20.44;48.81;102673.31;2223052;26;2210;-71
2024/04/12 00:51:05;;;;;;;;;;;;;;;20.44;48.53;102661.81;2222352;26;2383;-72
2024/04/12 00:52:12;;;;;;;;;;;;;;;20.42;48.46;102668.16;2222243;26;2164;-72
2024/04/12 00:53:14;;;;;;;;;;;;;;;20.43;48.65;102675.44;2226092;26;2299;-72
2024/04/12 00:54:16;;;;;;;;;;;;;;;20.43;48.61;102663.94;2221318;26;2180;-71
2024/04/12 00:55:17;;;;;;;;;;;;;;;20.42;48.46;102668.16;2222621;26;2359;-71
2024/04/12 00:56:19;;;;;;;;;;;;;;;20.43;48.93;102669.69;2222878;26;2182;-72
2024/04/12 00:57:21;;;;;;;;;;;;;;;20.43;48.62;102675.44;2220603;26;2255;-72
2024/04/12 00:58:23;;;;;;;;;;;;;;;20.42;48.45;102662.41;2235806;26;2039;-72
2024/04/12 00:59:25;;;;;;;;;;;;;;;20.42;48.75;102665.28;2233228;26;2308;-72
2024/04/12 01:00:35;;;;;;;;;;;;;;;20.41;48.75;102666.66;2218282;26;5925;-71
2024/04/12 01:01:36;;;;;;;;;;;;;;;20.42;48.98;102668.16;2221369;26;2268;-71
2024/04/12 01:02:41;;;;;;;;;;;;;;;20.41;48.78;102666.66;2218963;26;2542;-71
2024/04/12 01:03:49;;;;;;;;;;;;;;;20.42;48.37;102661.66;2221801;26;2641;-72
2024/04/12 01:04:51;;;;;;;;;;;;;;;20.42;48.55;102656.66;2228170;26;2329;-72
2024/04/12 01:05:54;;;;;;;;;;;;;;;20.42;48.85;102668.16;2223993;26;2377;-71
2024/04/12 01:06:58;;;;;;;;;;;;;;;20.42;48.70;102661.66;2220700;26;2271;-71
2024/04/12 01:08:00;;;;;;;;;;;;;;;20.41;48.66;102655.16;2223677;26;2192;-72
2024/04/12 01:09:11;;;;;;;;;;;;;;;20.42;48.98;102656.66;2218992;26;2671;-72
2024/04/12 01:10:13;;;;;;;;;;;;;;;20.42;48.75;102656.66;2219581;26;2669;-72
2024/04/12 01:11:15;;;;;;;;;;;;;;;20.41;48.94;102655.16;2219363;26;2251;-71
2024/04/12 01:12:19;;;;;;;;;;;;;;;20.42;48.47;102650.91;2221124;26;2179;-71
2024/04/12 01:13:21;;;;;;;;;;;;;;;20.41;48.97;102649.41;2223118;26;2176;-72
2024/04/12 01:14:25;;;;;;;;;;;;;;;20.41;48.67;102655.16;2220657;26;2426;-71
2024/04/12 01:15:32;;;;;;;;;;;;;;;20.41;48.29;102655.16;2220666;26;2103;-71
2024/04/12 01:16:39;;;;;;;;;;;;;;;20.41;48.61;102643.66;2229246;26;2224;-71
2024/04/12 01:17:40;;;;;;;;;;;;;;;20.41;48.43;102648.63;2220719;26;2244;-72
2024/04/12 01:18:45;;;;;;;;;;;;;;;20.41;48.74;102635.00;2216592;26;2768;-71
2024/04/12 01:19:47;;;;;;;;;;;;;;;20.41;48.72;102643.66;2216874;26;2434;-71
2024/04/12 01:20:49;;;;;;;;;;;;;;;20.41;48.59;102642.88;2212095;26;2064;-72
2024/04/12 01:21:51;;;;;;;;;;;;;;;20.40;48.59;102642.13;2221107;26;2253;-72
2024/04/12 01:22:57;;;;;;;;;;;;;;;20.40;48.94;102647.88;2214238;26;2322;-72
2024/04/12 01:24:05;;;;;;;;;;;;;;;20.40;48.72;102641.38;2217326;26;2500;-72
2024/04/12 01:25:09;;;;;;;;;;;;;;;20.41;48.83;102648.63;2218532;26;2538;-71
2024/04/12 01:26:12;;;;;;;;;;;;;;;20.39;48.75;102643.50;2221877;26;2290;-72
2024/04/12 01:27:14;;;;;;;;;;;;;;;20.39;48.31;102646.38;2221879;26;2161;-72
2024/04/12 01:28:16;;;;;;;;;;;;;;;20.40;48.54;102642.13;2215940;26;2574;-71
2024/04/12 01:29:19;;;;;;;;;;;;;;;20.39;48.66;102640.63;2219295;26;2287;-71
2024/04/12 01:30:21;;;;;;;;;;;;;;;20.39;48.63;102634.84;2221815;26;6109;-71
2024/04/12 01:31:27;;;;;;;;;;;;;;;20.39;48.77;102640.63;2233804;26;2317;-71
2024/04/12 01:32:28;;;;;;;;;;;;;;;20.40;48.60;102644.25;2239135;26;2302;-72
2024/04/12 01:33:31;;;;;;;;;;;;;;;20.40;48.62;102642.13;2234195;26;2531;-71
2024/04/12 01:34:33;;;;;;;;;;;;;;;20.39;48.95;102634.84;2236219;26;2535;-72
2024/04/12 01:35:35;;;;;;;;;;;;;;;20.39;48.42;102640.63;2237102;26;2283;-71
2024/04/12 01:36:37;;;;;;;;;;;;;;;20.40;49.00;102638.50;2234821;26;2316;-71
2024/04/12 01:37:43;;;;;;;;;;;;;;;20.39;48.82;102634.84;2236411;26;2445;-72
2024/04/12 01:38:45;;;;;;;;;;;;;;;20.39;48.55;102634.84;2228057;26;2638;-73
2024/04/12 01:39:47;;;;;;;;;;;;;;;20.39;48.62;102640.63;2235120;26;2294;-72
2024/04/12 01:40:57;;;;;;;;;;;;;;;20.39;49.09;102643.50;2237169;26;2315;-71
2024/04/12 01:42:04;;;;;;;;;;;;;;;20.39;48.27;102637.75;2235570;26;2233;-72
2024/04/12 01:43:08;;;;;;;;;;;;;;;20.39;48.87;102629.09;2235221;26;2339;-72
2024/04/12 01:44:09;;;;;;;;;;;;;;;20.39;48.95;102634.09;2233242;26;2544;-72
2024/04/12 01:45:13;;;;;;;;;;;;;;;20.39;48.82;102631.97;2235916;26;2528;-72
2024/04/12 01:46:15;;;;;;;;;;;;;;;20.39;48.46;102634.09;2234879;26;2288;-69
2024/04/12 01:47:16;;;;;;;;;;;;;;;20.38;48.35;102626.81;2234057;26;2373;-71
2024/04/12 01:48:18;;;;;;;;;;;;;;;20.38;48.46;102627.56;2244277;26;2647;-69
2024/04/12 01:49:22;;;;;;;;;;;;;;;20.38;48.60;102638.34;2233724;26;2277;-71
2024/04/12 01:50:24;;;;;;;;;;;;;;;20.38;48.74;102626.81;2237185;26;2215;-70
2024/04/12 01:51:26;;;;;;;;;;;;;;;20.38;48.65;102632.56;2234221;26;2255;-70
2024/04/12 01:52:27;;;;;;;;;;;;;;;20.37;48.97;102626.06;2237123;26;2295;-70
2024/04/12 01:53:36;;;;;;;;;;;;;;;20.38;48.41;102627.56;2249852;26;2570;-70
2024/04/12 01:55:04;;;;;;;;;;;;;;;20.38;48.69;102630.44;2250173;26;2291;-70
2024/04/12 01:55:59;;;;;;;;;;;;;;;20.38;48.71;102627.56;2230798;26;2257;-70
2024/04/12 01:57:03;;;;;;;;;;;;;;;20.38;48.72;102632.56;2236264;26;2287;-70
2024/04/12 01:58:05;;;;;;;;;;;;;;;20.36;48.73;102633.16;2239775;26;1971;-70
2024/04/12 01:59:06;;;;;;;;;;;;;;;20.36;48.36;102629.53;2233297;26;2745;-70
2024/04/12 02:00:11;;;;;;;;;;;;;;;20.38;48.62;102639.09;2234738;26;6045;-70
2024/04/12 02:01:14;;;;;;;;;;;;;;;20.37;48.95;102634.72;2233938;26;2564;-70
2024/04/12 02:02:15;;;;;;;;;;;;;;;20.36;49.16;102632.41;2233910;26;2714;-70
2024/04/12 02:03:17;;;;;;;;;;;;;;;20.35;49.01;102625.91;2233362;26;2652;-70
2024/04/12 02:04:21;;;;;;;;;;;;;;;20.35;49.16;102622.28;2225901;26;2211;-70
2024/04/12 02:05:32;;;;;;;;;;;;;;;20.36;48.97;102624.53;2237033;26;2109;-70
2024/04/12 02:06:41;;;;;;;;;;;;;;;20.35;48.77;102625.91;2238586;26;2129;-70
2024/04/12 02:07:44;;;;;;;;;;;;;;;20.35;48.37;102628.78;2234339;26;2230;-70
2024/04/12 02:08:48;;;;;;;;;;;;;;;20.36;48.91;102630.31;2229891;26;2708;-70
2024/04/12 02:09:50;;;;;;;;;;;;;;;20.35;48.50;102628.78;2235511;26;2917;-71
2024/04/12 02:10:53;;;;;;;;;;;;;;;20.35;48.94;102628.78;2238226;26;1981;-70
2024/04/12 02:11:57;;;;;;;;;;;;;;;20.35;48.94;102628.03;2235590;26;2315;-70
2024/04/12 02:12:59;;;;;;;;;;;;;;;20.35;48.86;102623.03;2229344;26;2623;-70
2024/04/12 02:14:03;;;;;;;;;;;;;;;20.35;48.72;102628.78;2234816;26;2432;-70
2024/04/12 02:15:19;;;;;;;;;;;;;;;20.36;48.75;102636.06;2233484;26;2286;-70
2024/04/12 02:16:21;;;;;;;;;;;;;;;20.35;48.42;102628.78;2233796;26;2320;-70
2024/04/12 02:17:23;;;;;;;;;;;;;;;20.35;48.74;102628.78;2234445;26;2509;-70
2024/04/12 02:18:25;;;;;;;;;;;;;;;20.36;48.70;102636.06;2234406;26;2917;-70
2024/04/12 02:19:30;;;;;;;;;;;;;;;20.35;48.96;102634.56;2228719;26;2715;-70
2024/04/12 02:20:34;;;;;;;;;;;;;;;20.36;48.65;102636.06;2232734;26;2510;-70
2024/04/12 02:21:38;;;;;;;;;;;;;;;20.35;48.40;102631.66;2231862;26;2619;-71
2024/04/12 02:22:40;;;;;;;;;;;;;;;20.36;48.69;102635.31;2243039;26;2212;-70
2024/04/12 02:23:43;;;;;;;;;;;;;;;20.36;49.06;102636.06;2233340;26;2610;-70
2024/04/12 02:24:45;;;;;;;;;;;;;;;20.34;49.18;102635.94;2229235;26;2560;-70
2024/04/12 02:25:49;;;;;;;;;;;;;;;20.35;48.52;102639.56;2233088;26;2520;-71
2024/04/12 02:26:51;;;;;;;;;;;;;;;20.34;49.04;102633.03;2235754;26;2164;-70
2024/04/12 02:27:55;;;;;;;;;;;;;;;20.34;48.86;102633.03;2233304;26;2532;-70
2024/04/12 02:29:01;;;;;;;;;;;;;;;20.34;48.64;102638.03;2227565;26;2804;-70
2024/04/12 02:30:03;;;;;;;;;;;;;;;20.34;49.03;102641.69;2229909;26;7174;-69
2024/04/12 02:31:08;;;;;;;;;;;;;;;20.33;48.39;102643.03;2235900;26;2544;-70
2024/04/12 02:32:10;;;;;;;;;;;;;;;20.33;48.75;102637.28;2235319;26;2442;-70
2024/04/12 02:33:14;;;;;;;;;;;;;;;20.33;48.83;102631.53;2235665;26;2139;-69
2024/04/12 02:34:15;;;;;;;;;;;;;;;20.34;49.10;102632.28;2234331;26;2250;-69
2024/04/12 02:35:17;;;;;;;;;;;;;;;20.34;49.05;102632.28;2244265;26;2070;-70
2024/04/12 02:36:21;;;;;;;;;;;;;;;20.33;49.06;102633.66;2237031;26;2176;-70
2024/04/12 02:37:22;;;;;;;;;;;;;;;20.33;48.73;102636.53;2240187;26;2223;-70
2024/04/12 02:38:26;;;;;;;;;;;;;;;20.32;48.81;102635.78;2239981;26;2225;-70
2024/04/12 02:39:27;;;;;;;;;;;;;;;20.31;48.87;102640.00;2233982;26;2558;-70
2024/04/12 02:40:29;;;;;;;;;;;;;;;20.32;49.27;102635.78;2232630;26;2328;-70
2024/04/12 02:41:37;;;;;;;;;;;;;;;20.32;49.35;102644.41;2242990;26;2100;-70
2024/04/12 02:42:39;;;;;;;;;;;;;;;20.32;48.94;102644.41;2229514;26;2183;-70
2024/04/12 02:43:45;;;;;;;;;;;;;;;20.33;48.61;102640.16;2233650;26;2413;-70
2024/04/12 02:44:47;;;;;;;;;;;;;;;20.33;49.12;102642.28;2229036;26;2201;-70
2024/04/12 02:45:48;;;;;;;;;;;;;;;20.32;48.62;102647.28;2230732;26;2547;-70
2024/04/12 02:46:50;;;;;;;;;;;;;;;20.32;49.30;102641.53;2236365;26;2266;-70
2024/04/12 02:47:53;;;;;;;;;;;;;;;20.33;49.11;102637.28;2235496;26;2285;-70
2024/04/12 02:48:54;;;;;;;;;;;;;;;20.33;48.78;102642.28;2229544;26;2123;-70
2024/04/12 02:49:57;;;;;;;;;;;;;;;20.34;48.78;102630.19;2228790;26;2511;-71
2024/04/12 02:51:03;;;;;;;;;;;;;;;20.34;48.71;102638.81;2234991;26;2427;-70
2024/04/12 02:52:04;;;;;;;;;;;;;;;20.35;48.46;102640.31;2236703;26;2002;-71
2024/04/12 02:53:06;;;;;;;;;;;;;;;20.35;48.48;102637.44;2234731;26;2213;-70
2024/04/12 02:54:07;;;;;;;;;;;;;;;20.35;48.63;102636.69;2232866;26;2560;-70
2024/04/12 02:55:15;;;;;;;;;;;;;;;20.36;48.50;102641.06;2233976;26;2496;-70
2024/04/12 02:56:18;;;;;;;;;;;;;;;20.35;49.05;102636.69;2243850;26;2108;-70
2024/04/12 02:57:19;;;;;;;;;;;;;;;20.35;48.94;102637.44;2248442;26;2288;-69
2024/04/12 02:58:21;;;;;;;;;;;;;;;20.35;49.01;102634.56;2234699;26;2435;-70
2024/04/12 02:59:22;;;;;;;;;;;;;;;20.34;48.42;102638.81;2238637;26;2567;-70
2024/04/12 03:00:25;;;;;;;;;;;;;;;20.35;48.45;102630.94;2230251;26;7170;-70
2024/04/12 03:01:27;;;;;;;;;;;;;;;20.35;48.55;102646.06;2230275;26;2602;-70
2024/04/12 03:02:29;;;;;;;;;;;;;;;20.36;48.81;102641.06;2235111;26;2108;-70
2024/04/12 03:03:30;;;;;;;;;;;;;;;20.35;48.80;102640.31;2235766;26;2088;-70
2024/04/12 03:04:32;;;;;;;;;;;;;;;20.35;49.02;102646.06;2233184;26;2520;-70
2024/04/12 03:05:33;;;;;;;;;;;;;;;20.35;48.65;102636.69;2230136;26;2666;-70
2024/04/12 03:06:35;;;;;;;;;;;;;;;20.35;48.52;102636.69;2233484;26;1989;-70
2024/04/12 03:07:37;;;;;;;;;;;;;;;20.35;48.46;102636.69;2235144;26;2310;-70
2024/04/12 03:08:44;;;;;;;;;;;;;;;20.35;49.02;102643.19;2233084;26;2546;-70
2024/04/12 03:09:45;;;;;;;;;;;;;;;20.35;48.81;102634.56;2240872;26;2793;-70
2024/04/12 03:10:48;;;;;;;;;;;;;;;20.34;48.61;102638.81;2236934;26;2161;-70
2024/04/12 03:11:50;;;;;;;;;;;;;;;20.35;48.77;102634.56;2235756;26;2132;-70
2024/04/12 03:12:52;;;;;;;;;;;;;;;20.34;48.99;102626.50;2236885;26;2128;-69
2024/04/12 03:14:03;;;;;;;;;;;;;;;20.35;48.98;102633.81;2242181;26;2115;-70
2024/04/12 03:15:10;;;;;;;;;;;;;;;20.35;48.99;102637.44;2234763;26;2623;-70
2024/04/12 03:16:13;;;;;;;;;;;;;;;20.35;48.59;102628.78;2235510;26;2621;-70
2024/04/12 03:17:17;;;;;;;;;;;;;;;20.35;48.98;102630.94;2239102;26;2377;-70
2024/04/12 03:18:19;;;;;;;;;;;;;;;20.34;48.43;102630.19;2233924;26;2290;-70
2024/04/12 03:19:20;;;;;;;;;;;;;;;20.34;49.25;102627.28;2232739;26;2329;-70
2024/04/12 03:20:22;;;;;;;;;;;;;;;20.35;48.77;102628.78;2237073;26;2661;-70
2024/04/12 03:21:26;;;;;;;;;;;;;;;20.34;48.98;102620.75;2236444;26;2150;-70
2024/04/12 03:22:28;;;;;;;;;;;;;;;20.35;48.79;102623.03;2235458;26;2443;-70
2024/04/12 03:23:29;;;;;;;;;;;;;;;20.34;49.10;102621.53;2242683;26;2455;-70
2024/04/12 03:24:31;;;;;;;;;;;;;;;20.35;48.83;102633.81;2237943;26;2326;-71
2024/04/12 03:25:37;;;;;;;;;;;;;;;20.34;48.89;102627.28;2237846;26;2069;-71
2024/04/12 03:26:39;;;;;;;;;;;;;;;20.34;49.06;102627.28;2231721;26;2037;-70
2024/04/12 03:27:42;;;;;;;;;;;;;;;20.34;48.68;102621.53;2235491;26;2374;-69
2024/04/12 03:28:45;;;;;;;;;;;;;;;20.34;48.80;102623.63;2235708;26;2262;-70
2024/04/12 03:29:49;;;;;;;;;;;;;;;20.34;49.19;102620.75;2231232;26;2980;-70
2024/04/12 03:30:54;;;;;;;;;;;;;;;20.34;48.99;102627.28;2233742;26;6049;-70
2024/04/12 03:31:56;;;;;;;;;;;;;;;20.34;48.74;102635.94;2232440;26;2540;-70
2024/04/12 03:33:02;;;;;;;;;;;;;;;20.34;49.19;102630.19;2230856;26;2812;-70
2024/04/12 03:34:07;;;;;;;;;;;;;;;20.34;48.81;102624.41;2236698;26;2176;-70
2024/04/12 03:35:10;;;;;;;;;;;;;;;20.35;48.88;102634.56;2237411;26;2346;-70
2024/04/12 03:36:29;;;;;;;;;;;;;;;20.34;48.58;102627.28;2238241;26;2025;-70
2024/04/12 03:37:37;;;;;;;;;;;;;;;20.36;48.98;102633.16;2237893;26;2332;-70
2024/04/12 03:38:38;;;;;;;;;;;;;;;20.35;48.74;102628.78;2236594;26;2122;-69
2024/04/12 03:39:40;;;;;;;;;;;;;;;20.36;48.55;102638.94;2235305;26;2369;-70
2024/04/12 03:40:45;;;;;;;;;;;;;;;20.34;49.06;102627.28;2234597;26;2523;-69
2024/04/12 03:43:21;;;;;;;;;;;;;;;20.35;48.97;102634.56;2223710;26;2692;-70
2024/04/12 03:44:25;;;;;;;;;;;;;;;20.36;49.04;102636.06;2237450;26;2092;-70
2024/04/12 03:45:26;;;;;;;;;;;;;;;20.36;48.67;102635.31;2240029;26;2213;-70
2024/04/12 03:46:29;;;;;;;;;;;;;;;20.35;48.89;102634.56;2228431;26;2774;-69
2024/04/12 03:47:37;;;;;;;;;;;;;;;20.36;48.69;102636.06;2247696;26;2140;-70
2024/04/12 03:48:39;;;;;;;;;;;;;;;20.36;48.60;102635.31;2231952;26;2172;-70
2024/04/12 03:49:41;;;;;;;;;;;;;;;20.35;49.03;102634.56;2233360;26;2553;-70
2024/04/12 03:50:48;;;;;;;;;;;;;;;20.36;49.30;102641.81;2238211;26;2518;-69
2024/04/12 03:51:54;;;;;;;;;;;;;;;20.35;48.53;102640.31;2234424;26;2254;-70
2024/04/12 03:53:14;;;;;;;;;;;;;;;20.36;49.15;102641.06;2233686;26;2204;-70
2024/04/12 03:54:21;;;;;;;;;;;;;;;20.34;49.24;102638.81;2235683;26;2540;-70
2024/04/12 03:55:22;;;;;;;;;;;;;;;20.35;49.13;102640.31;2234825;26;2635;-70
2024/04/12 03:56:28;;;;;;;;;;;;;;;20.35;48.99;102637.44;2230524;26;2757;-70
2024/04/12 03:57:29;;;;;;;;;;;;;;;20.34;48.70;102649.53;2231239;26;2666;-70
2024/04/12 03:58:31;;;;;;;;;;;;;;;20.35;48.74;102640.31;2236823;26;2322;-70
2024/04/12 03:59:35;;;;;;;;;;;;;;;20.34;48.72;102638.81;2230359;26;2342;-70
2024/04/12 04:00:38;;;;;;;;;;;;;;;20.33;49.00;102637.28;2232675;26;5900;-70
2024/04/12 04:01:44;;;;;;;;;;;;;;;20.34;49.28;102635.94;2236644;26;2463;-70
2024/04/12 04:02:48;;;;;;;;;;;;;;;20.34;49.36;102632.28;2237263;26;2213;-70
2024/04/12 04:03:53;;;;;;;;;;;;;;;20.33;49.14;102625.75;2236239;26;2142;-70
2024/04/12 04:05:13;;;;;;;;;;;;;;;20.32;49.28;102623.47;2231771;26;2126;-70
2024/04/12 04:06:14;;;;;;;;;;;;;;;20.33;49.19;102637.28;2235167;26;2340;-70
2024/04/12 04:07:16;;;;;;;;;;;;;;;20.34;48.83;102643.78;2230659;26;2007;-70
2024/04/12 04:08:20;;;;;;;;;;;;;;;20.33;49.02;102640.16;2239726;26;2273;-71
2024/04/12 04:09:22;;;;;;;;;;;;;;;20.32;49.01;102635.78;2234271;26;2674;-70
2024/04/12 04:10:25;;;;;;;;;;;;;;;20.32;49.23;102630.00;2233526;26;2380;-70
2024/04/12 04:11:30;;;;;;;;;;;;;;;20.33;48.66;102628.63;2236975;26;2358;-70
2024/04/12 04:12:32;;;;;;;;;;;;;;;20.32;49.29;102632.91;2237101;26;2636;-70
2024/04/12 04:13:35;;;;;;;;;;;;;;;20.32;49.14;102629.25;2236920;26;2106;-70
2024/04/12 04:14:37;;;;;;;;;;;;;;;20.32;48.86;102632.91;2234302;26;1947;-71
2024/04/12 04:15:45;;;;;;;;;;;;;;;20.32;48.76;102635.78;2235452;26;2035;-70
2024/04/12 04:16:49;;;;;;;;;;;;;;;20.32;49.19;102641.53;2233666;26;2659;-70
2024/04/12 04:17:51;;;;;;;;;;;;;;;20.30;49.42;102641.38;2237694;26;2130;-70
2024/04/12 04:18:57;;;;;;;;;;;;;;;20.32;48.75;102646.50;2229087;26;2686;-70
2024/04/12 04:20:05;;;;;;;;;;;;;;;20.31;49.47;102640.00;2233865;26;2672;-71
2024/04/12 04:21:09;;;;;;;;;;;;;;;20.32;48.91;102635.00;2231303;26;2621;-69
2024/04/12 04:23:38;;;;;;;;;;;;;;;20.32;49.29;102635.78;2233904;26;2488;-70
2024/04/12 04:24:40;;;;;;;;;;;;;;;20.31;48.90;102642.88;2236352;26;2180;-70
2024/04/12 04:25:44;;;;;;;;;;;;;;;20.31;48.92;102634.25;2230429;26;2294;-70
2024/04/12 04:26:45;;;;;;;;;;;;;;;20.31;49.57;102637.13;2243060;26;2726;-70
2024/04/12 04:27:47;;;;;;;;;;;;;;;20.30;48.98;102635.63;2236466;26;2560;-70
2024/04/12 04:28:51;;;;;;;;;;;;;;;20.30;49.11;102636.38;2235617;26;2925;-71
2024/04/12 04:29:55;;;;;;;;;;;;;;;20.30;48.72;102635.63;2238494;26;2289;-70
2024/04/12 04:31:05;;;;;;;;;;;;;;;20.30;49.01;102632.75;2228947;26;6686;-70
2024/04/12 04:32:09;;;;;;;;;;;;;;;20.30;49.19;102632.75;2229709;26;2517;-69
2024/04/12 04:33:12;;;;;;;;;;;;;;;20.30;49.54;102635.63;2230108;26;2396;-70
2024/04/12 04:34:19;;;;;;;;;;;;;;;20.30;48.73;102630.63;2229471;26;2129;-70
2024/04/12 04:35:26;;;;;;;;;;;;;;;20.29;49.54;102631.22;2235630;26;2101;-70
2024/04/12 04:36:31;;;;;;;;;;;;;;;20.30;49.18;102632.75;2234312;26;2375;-69
2024/04/12 04:37:37;;;;;;;;;;;;;;;20.29;49.39;102626.22;2229242;26;2513;-70
2024/04/12 04:38:39;;;;;;;;;;;;;;;20.30;49.40;102632.75;2231242;26;2471;-70
2024/04/12 04:39:41;;;;;;;;;;;;;;;20.30;49.12;102626.97;2234110;26;2158;-70
2024/04/12 04:40:42;;;;;;;;;;;;;;;20.28;48.99;102633.34;2235941;26;2641;-69
2024/04/12 04:41:45;;;;;;;;;;;;;;;20.29;49.24;102631.22;2233825;26;2552;-70
2024/04/12 04:42:49;;;;;;;;;;;;;;;20.30;49.59;102626.97;2235962;26;2581;-70
2024/04/12 04:43:52;;;;;;;;;;;;;;;20.29;49.17;102632.00;2240289;26;2516;-70
2024/04/12 04:44:53;;;;;;;;;;;;;;;20.25;48.73;102628.06;2230156;26;2568;-72
2024/04/12 04:45:59;;;;;;;;;;;;;;;20.27;49.58;102622.44;2237873;26;2213;-72
2024/04/12 04:47:03;;;;;;;;;;;;;;;20.29;49.14;102632.00;2235301;26;2277;-72
2024/04/12 04:48:05;;;;;;;;;;;;;;;20.24;49.10;102630.16;2234187;26;2660;-72
2024/04/12 04:49:06;;;;;;;;;;;;;;;20.22;49.64;102629.25;2235188;26;2624;-72
2024/04/12 04:50:08;;;;;;;;;;;;;;;20.22;49.51;102629.25;2241752;26;2312;-73
2024/04/12 04:51:11;;;;;;;;;;;;;;;20.22;49.09;102626.38;2237210;26;2155;-72
2024/04/12 04:52:15;;;;;;;;;;;;;;;20.16;49.59;102623.03;2232931;26;2267;-75
2024/04/12 04:53:16;;;;;;;;;;;;;;;20.21;49.90;102624.88;2222052;26;2856;-73
2024/04/12 04:54:21;;;;;;;;;;;;;;;20.39;52.29;102616.84;2235610;26;2918;-75
2024/04/12 04:55:23;;;;;;;;;;;;;;;20.48;50.92;102616.09;2236734;26;2809;-72
2024/04/12 04:56:25;;;;;;;;;;;;;;;20.55;51.21;102620.91;2232014;26;2706;-70
2024/04/12 04:57:29;;;;;;;;;;;;;;;20.58;51.23;102616.09;2231331;26;2629;-70
2024/04/12 04:58:34;;;;;;;;;;;;;;;20.61;51.08;102612.00;2233259;26;2754;-69
2024/04/12 04:59:35;;;;;;;;;;;;;;;20.64;50.76;102614.41;2226681;26;3434;-69
2024/04/12 05:00:40;;;;;;;;;;;;;;;20.66;50.15;102610.91;2228263;26;7067;-68
2024/04/12 05:01:48;;;;;;;;;;;;;;;20.69;50.28;102612.59;2233049;26;2081;-70
2024/04/12 05:02:50;;;;;;;;;;;;;;;20.54;49.87;102610.75;2236388;26;2108;-69
2024/04/12 05:03:52;;;;;;;;;;;;;;;20.46;49.26;102605.16;2235750;26;2101;-69
2024/04/12 05:04:55;;;;;;;;;;;;;;;20.36;49.65;102601.53;2235396;26;2879;-69
2024/04/12 05:05:56;;;;;;;;;;;;;;;20.30;49.50;102609.72;2239504;26;2108;-68
2024/04/12 05:06:58;;;;;;;;;;;;;;;20.29;49.66;102613.94;2227146;26;2196;-68
2024/04/12 05:08:02;;;;;;;;;;;;;;;20.29;50.08;102603.22;2229126;26;2404;-69
2024/04/12 05:09:04;;;;;;;;;;;;;;;20.32;49.55;102607.00;2233725;26;2229;-68
2024/04/12 05:10:14;;;;;;;;;;;;;;;20.33;49.99;102599.13;2236478;26;2548;-74
2024/04/12 05:11:15;;;;;;;;;;;;;;;20.39;49.41;102600.31;2237170;26;2545;-72
2024/04/12 05:12:17;;;;;;;;;;;;;;;20.34;49.47;102592.75;2236874;26;2360;-71
2024/04/12 05:13:19;;;;;;;;;;;;;;;20.33;49.86;102597.00;2236451;26;2294;-71
2024/04/12 05:16:43;;;;;;;;;;;;;;;20.23;49.76;102596.25;2228655;26;2499;-71
2024/04/12 05:17:44;;;;;;;;;;;;;;;20.24;49.89;102603.50;2226301;26;2647;-70
2024/04/12 05:18:48;;;;;;;;;;;;;;;20.23;50.01;102596.25;2229453;26;2668;-71
2024/04/12 05:19:49;;;;;;;;;;;;;;;20.23;50.37;102596.25;2227373;26;2642;-71
2024/04/12 05:20:51;;;;;;;;;;;;;;;20.17;49.92;102599.41;2233889;26;2602;-71
2024/04/12 05:21:52;;;;;;;;;;;;;;;20.12;49.99;102599.72;2235005;26;2509;-71
2024/04/12 05:23:00;;;;;;;;;;;;;;;19.97;50.72;102601.50;2235057;26;2159;-71
2024/04/12 05:24:02;;;;;;;;;;;;;;;19.86;50.66;102602.88;2228412;26;2651;-72
2024/04/12 05:25:05;;;;;;;;;;;;;;;19.80;51.44;102604.53;2225804;26;2464;-72
2024/04/12 05:26:09;;;;;;;;;;;;;;;19.75;50.89;102603.47;2234016;26;2429;-72
2024/04/12 05:27:11;;;;;;;;;;;;;;;19.70;51.18;102612.38;2237764;26;2403;-71
2024/04/12 05:28:13;;;;;;;;;;;;;;;19.74;51.35;102612.69;2238525;26;2089;-70
2024/04/12 05:29:17;;;;;;;;;;;;;;;19.73;51.36;102611.19;2234939;26;2429;-71
2024/04/12 05:30:18;;;;;;;;;;;;;;;19.72;51.46;102612.53;2235709;26;6126;-71
2024/04/12 05:31:20;;;;;;;;;;;;;;;19.71;51.23;102613.88;2234702;26;2864;-70
2024/04/12 05:32:23;;;;;;;;;;;;;;;19.70;51.03;102607.41;2237021;26;2568;-71
2024/04/12 05:33:25;;;;;;;;;;;;;;;19.64;51.23;102607.63;2241869;26;2155;-71
2024/04/12 05:34:26;;;;;;;;;;;;;;;19.64;51.82;102610.50;2235297;26;2535;-71
2024/04/12 05:35:30;;;;;;;;;;;;;;;19.69;51.20;102605.09;2233673;26;2445;-71
2024/04/12 05:36:33;;;;;;;;;;;;;;;19.63;51.54;102605.34;2234383;26;2529;-72
2024/04/12 05:37:35;;;;;;;;;;;;;;;19.63;51.39;102602.47;2236861;26;2738;-71